sensor_id;sensor_type;location;lat;lon;timestamp;temperature;humidity
8114;DHT22;4099;52.684;9.918;2023-12-14T00:03:21;3.80;99.90
8114;DHT22;4099;52.684;9.918;2023-12-14T00:08:23;3.70;99.90
8114;DHT22;4099;52.684;9.918;2023-12-14T00:13:25;3.80;99.90
8114;DHT22;4099;52.684;9.918;2023-12-14T00:18:28;3.70;99.90
8114;DHT22;4099;52.684;9.918;2023-12-14T00:23:30;3.70;99.90
8114;DHT22;4099;52.684;9.918;2023-12-14T00:28:32;3.60;99.90
8114;DHT22;4099;52.684;9.918;2023-12-14T00:33:35;3.70;99.90
8114;DHT22;4099;52.684;9.918;2023-12-14T00:38:37;3.80;99.90
8114;DHT22;4099;52.684;9.918;2023-12-14T00:43:40;3.70;99.90
8114;DHT22;4099;52.684;9.918;2023-12-14T00:48:43;3.70;99.90
8114;DHT22;4099;52.684;9.918;2023-12-14T00:53:45;3.60;99.90
8114;DHT22;4099;52.684;9.918;2023-12-14T00:58:49;3.60;99.90
8114;DHT22;4099;52.684;9.918;2023-12-14T01:03:52;3.60;99.90
8114;DHT22;4099;52.684;9.918;2023-12-14T01:08:54;3.60;99.90
8114;DHT22;4099;52.684;9.918;2023-12-14T01:13:56;3.50;99.90
8114;DHT22;4099;52.684;9.918;2023-12-14T01:18:59;3.50;99.90
8114;DHT22;4099;52.684;9.918;2023-12-14T01:24:00;3.50;99.90
8114;DHT22;4099;52.684;9.918;2023-12-14T01:29:02;3.60;99.90
8114;DHT22;4099;52.684;9.918;2023-12-14T01:34:05;3.50;99.90
8114;DHT22;4099;52.684;9.918;2023-12-14T01:39:07;3.50;99.90
8114;DHT22;4099;52.684;9.918;2023-12-14T01:44:08;3.50;99.90
8114;DHT22;4099;52.684;9.918;2023-12-14T01:49:11;3.40;99.90
8114;DHT22;4099;52.684;9.918;2023-12-14T01:54:13;3.50;99.90
8114;DHT22;4099;52.684;9.918;2023-12-14T01:59:15;3.50;99.90
8114;DHT22;4099;52.684;9.918;2023-12-14T02:04:18;3.50;99.90
8114;DHT22;4099;52.684;9.918;2023-12-14T02:09:20;3.60;99.90
8114;DHT22;4099;52.684;9.918;2023-12-14T02:14:22;3.40;99.90
8114;DHT22;4099;52.684;9.918;2023-12-14T02:19:26;3.30;99.90
8114;DHT22;4099;52.684;9.918;2023-12-14T02:24:29;3.30;99.90
8114;DHT22;4099;52.684;9.918;2023-12-14T02:29:30;3.40;99.90
8114;DHT22;4099;52.684;9.918;2023-12-14T02:34:32;3.40;99.90
8114;DHT22;4099;52.684;9.918;2023-12-14T02:39:35;3.40;99.90
8114;DHT22;4099;52.684;9.918;2023-12-14T02:44:37;3.50;99.90
8114;DHT22;4099;52.684;9.918;2023-12-14T02:49:38;3.40;99.90
8114;DHT22;4099;52.684;9.918;2023-12-14T02:54:41;3.30;99.90
8114;DHT22;4099;52.684;9.918;2023-12-14T02:59:43;3.40;99.90
8114;DHT22;4099;52.684;9.918;2023-12-14T03:04:45;3.30;99.90
8114;DHT22;4099;52.684;9.918;2023-12-14T03:09:48;3.40;99.90
8114;DHT22;4099;52.684;9.918;2023-12-14T03:14:50;3.40;99.90
8114;DHT22;4099;52.684;9.918;2023-12-14T03:19:51;3.30;99.90
8114;DHT22;4099;52.684;9.918;2023-12-14T03:24:54;3.30;99.90
8114;DHT22;4099;52.684;9.918;2023-12-14T03:29:56;3.30;99.90
8114;DHT22;4099;52.684;9.918;2023-12-14T03:34:58;3.30;99.90
8114;DHT22;4099;52.684;9.918;2023-12-14T03:40:01;3.30;99.90
8114;DHT22;4099;52.684;9.918;2023-12-14T03:45:03;3.40;99.90
8114;DHT22;4099;52.684;9.918;2023-12-14T03:50:06;3.40;99.90
8114;DHT22;4099;52.684;9.918;2023-12-14T03:55:11;3.30;99.90
8114;DHT22;4099;52.684;9.918;2023-12-14T04:00:13;3.40;99.90
8114;DHT22;4099;52.684;9.918;2023-12-14T04:05:15;3.30;99.90
8114;DHT22;4099;52.684;9.918;2023-12-14T04:10:18;3.20;99.90
8114;DHT22;4099;52.684;9.918;2023-12-14T04:15:20;3.20;99.90
8114;DHT22;4099;52.684;9.918;2023-12-14T04:20:22;3.30;99.90
8114;DHT22;4099;52.684;9.918;2023-12-14T04:25:25;3.30;99.90
8114;DHT22;4099;52.684;9.918;2023-12-14T04:30:27;3.30;99.90
8114;DHT22;4099;52.684;9.918;2023-12-14T04:35:28;3.40;99.90
8114;DHT22;4099;52.684;9.918;2023-12-14T04:40:33;3.40;99.90
8114;DHT22;4099;52.684;9.918;2023-12-14T04:45:34;3.40;99.90
8114;DHT22;4099;52.684;9.918;2023-12-14T04:50:36;3.40;99.90
8114;DHT22;4099;52.684;9.918;2023-12-14T04:55:39;3.50;99.90
8114;DHT22;4099;52.684;9.918;2023-12-14T05:00:41;3.50;99.90
8114;DHT22;4099;52.684;9.918;2023-12-14T05:05:43;3.70;99.90
8114;DHT22;4099;52.684;9.918;2023-12-14T05:10:46;3.70;99.90
8114;DHT22;4099;52.684;9.918;2023-12-14T05:15:47;3.70;99.90
8114;DHT22;4099;52.684;9.918;2023-12-14T05:20:50;3.60;99.90
8114;DHT22;4099;52.684;9.918;2023-12-14T05:25:53;3.50;99.90
8114;DHT22;4099;52.684;9.918;2023-12-14T05:30:55;3.50;99.90
8114;DHT22;4099;52.684;9.918;2023-12-14T05:35:56;3.60;99.90
8114;DHT22;4099;52.684;9.918;2023-12-14T05:41:00;3.50;99.90
8114;DHT22;4099;52.684;9.918;2023-12-14T05:46:02;3.60;99.90
8114;DHT22;4099;52.684;9.918;2023-12-14T05:51:05;3.50;99.90
8114;DHT22;4099;52.684;9.918;2023-12-14T05:56:09;3.40;99.90
8114;DHT22;4099;52.684;9.918;2023-12-14T06:01:10;3.30;99.90
8114;DHT22;4099;52.684;9.918;2023-12-14T06:06:12;3.40;99.90
8114;DHT22;4099;52.684;9.918;2023-12-14T06:11:16;3.30;99.90
8114;DHT22;4099;52.684;9.918;2023-12-14T06:16:18;3.30;99.90
8114;DHT22;4099;52.684;9.918;2023-12-14T06:21:19;3.30;99.90
8114;DHT22;4099;52.684;9.918;2023-12-14T06:26:22;3.40;99.90
8114;DHT22;4099;52.684;9.918;2023-12-14T06:31:24;3.50;99.90
8114;DHT22;4099;52.684;9.918;2023-12-14T06:36:26;3.40;99.90
8114;DHT22;4099;52.684;9.918;2023-12-14T06:41:31;3.30;99.90
8114;DHT22;4099;52.684;9.918;2023-12-14T06:46:33;3.40;99.90
8114;DHT22;4099;52.684;9.918;2023-12-14T06:51:34;3.40;99.90
8114;DHT22;4099;52.684;9.918;2023-12-14T06:56:38;3.40;99.90
8114;DHT22;4099;52.684;9.918;2023-12-14T07:01:39;3.30;99.90
8114;DHT22;4099;52.684;9.918;2023-12-14T07:06:41;3.30;99.90
8114;DHT22;4099;52.684;9.918;2023-12-14T07:11:44;3.30;99.90
8114;DHT22;4099;52.684;9.918;2023-12-14T07:16:46;3.30;99.90
8114;DHT22;4099;52.684;9.918;2023-12-14T07:21:48;3.30;99.90
8114;DHT22;4099;52.684;9.918;2023-12-14T07:26:51;3.20;99.90
8114;DHT22;4099;52.684;9.918;2023-12-14T07:31:53;3.40;99.90
8114;DHT22;4099;52.684;9.918;2023-12-14T07:36:55;3.50;99.90
8114;DHT22;4099;52.684;9.918;2023-12-14T07:41:58;3.40;99.90
8114;DHT22;4099;52.684;9.918;2023-12-14T07:47:00;3.40;99.90
8114;DHT22;4099;52.684;9.918;2023-12-14T07:52:01;3.40;99.90
8114;DHT22;4099;52.684;9.918;2023-12-14T07:57:05;3.40;99.90
8114;DHT22;4099;52.684;9.918;2023-12-14T08:02:07;3.50;99.90
8114;DHT22;4099;52.684;9.918;2023-12-14T08:07:08;3.70;99.90
8114;DHT22;4099;52.684;9.918;2023-12-14T08:12:11;3.60;99.90
8114;DHT22;4099;52.684;9.918;2023-12-14T08:17:13;3.60;99.90
8114;DHT22;4099;52.684;9.918;2023-12-14T08:22:15;3.50;99.90
8114;DHT22;4099;52.684;9.918;2023-12-14T08:27:19;3.40;99.90
8114;DHT22;4099;52.684;9.918;2023-12-14T08:32:21;3.40;99.90
8114;DHT22;4099;52.684;9.918;2023-12-14T08:37:22;3.40;99.90
8114;DHT22;4099;52.684;9.918;2023-12-14T08:42:26;3.40;99.90
8114;DHT22;4099;52.684;9.918;2023-12-14T08:47:27;3.50;99.90
8114;DHT22;4099;52.684;9.918;2023-12-14T08:52:29;3.50;99.90
8114;DHT22;4099;52.684;9.918;2023-12-14T08:57:32;3.60;99.90
8114;DHT22;4099;52.684;9.918;2023-12-14T09:02:35;3.70;99.90
8114;DHT22;4099;52.684;9.918;2023-12-14T09:07:37;3.70;99.90
8114;DHT22;4099;52.684;9.918;2023-12-14T09:12:40;3.80;99.90
8114;DHT22;4099;52.684;9.918;2023-12-14T09:17:42;3.70;99.90
8114;DHT22;4099;52.684;9.918;2023-12-14T09:22:44;3.80;99.90
8114;DHT22;4099;52.684;9.918;2023-12-14T09:27:47;3.80;99.90
8114;DHT22;4099;52.684;9.918;2023-12-14T09:32:48;3.80;99.90
8114;DHT22;4099;52.684;9.918;2023-12-14T09:37:52;3.80;99.90
8114;DHT22;4099;52.684;9.918;2023-12-14T09:42:55;3.90;99.90
8114;DHT22;4099;52.684;9.918;2023-12-14T09:47:58;4.10;99.90
8114;DHT22;4099;52.684;9.918;2023-12-14T09:53:01;4.00;99.90
8114;DHT22;4099;52.684;9.918;2023-12-14T09:58:04;4.00;99.90
8114;DHT22;4099;52.684;9.918;2023-12-14T10:03:21;4.10;99.90
8114;DHT22;4099;52.684;9.918;2023-12-14T10:08:24;4.10;99.90
8114;DHT22;4099;52.684;9.918;2023-12-14T10:13:38;4.10;99.90
8114;DHT22;4099;52.684;9.918;2023-12-14T10:18:40;4.10;99.90
8114;DHT22;4099;52.684;9.918;2023-12-14T10:23:42;4.20;99.90
8114;DHT22;4099;52.684;9.918;2023-12-14T10:28:48;4.20;99.90
8114;DHT22;4099;52.684;9.918;2023-12-14T10:33:50;4.30;99.90
8114;DHT22;4099;52.684;9.918;2023-12-14T10:38:53;4.30;99.90
8114;DHT22;4099;52.684;9.918;2023-12-14T10:43:57;4.30;99.90
8114;DHT22;4099;52.684;9.918;2023-12-14T10:49:01;4.30;99.90
8114;DHT22;4099;52.684;9.918;2023-12-14T10:54:03;4.20;99.90
8114;DHT22;4099;52.684;9.918;2023-12-14T10:59:06;4.30;99.90
8114;DHT22;4099;52.684;9.918;2023-12-14T11:04:08;4.20;99.90
8114;DHT22;4099;52.684;9.918;2023-12-14T11:09:13;4.30;99.90
8114;DHT22;4099;52.684;9.918;2023-12-14T11:14:20;4.30;99.90
8114;DHT22;4099;52.684;9.918;2023-12-14T11:19:28;4.30;99.90
8114;DHT22;4099;52.684;9.918;2023-12-14T11:24:30;4.30;99.90
8114;DHT22;4099;52.684;9.918;2023-12-14T11:29:35;4.30;99.90
8114;DHT22;4099;52.684;9.918;2023-12-14T11:34:39;4.30;99.90
8114;DHT22;4099;52.684;9.918;2023-12-14T11:39:41;4.40;99.90
8114;DHT22;4099;52.684;9.918;2023-12-14T11:44:46;4.40;99.90
8114;DHT22;4099;52.684;9.918;2023-12-14T11:49:47;4.40;99.90
8114;DHT22;4099;52.684;9.918;2023-12-14T11:54:49;4.40;99.90
8114;DHT22;4099;52.684;9.918;2023-12-14T11:59:52;4.30;99.90
8114;DHT22;4099;52.684;9.918;2023-12-14T12:04:54;4.30;99.90
8114;DHT22;4099;52.684;9.918;2023-12-14T12:09:56;4.30;99.90
8114;DHT22;4099;52.684;9.918;2023-12-14T12:14:59;4.40;99.90
8114;DHT22;4099;52.684;9.918;2023-12-14T12:20:01;4.40;99.90
8114;DHT22;4099;52.684;9.918;2023-12-14T12:25:03;4.40;99.90
8114;DHT22;4099;52.684;9.918;2023-12-14T12:30:07;4.30;99.90
8114;DHT22;4099;52.684;9.918;2023-12-14T12:35:10;4.40;99.90
8114;DHT22;4099;52.684;9.918;2023-12-14T12:40:12;4.40;99.90
8114;DHT22;4099;52.684;9.918;2023-12-14T12:45:18;4.40;99.90
8114;DHT22;4099;52.684;9.918;2023-12-14T12:50:22;4.40;99.90
8114;DHT22;4099;52.684;9.918;2023-12-14T12:55:26;4.40;99.90
8114;DHT22;4099;52.684;9.918;2023-12-14T13:00:29;4.50;99.90
8114;DHT22;4099;52.684;9.918;2023-12-14T13:05:31;4.60;99.90
8114;DHT22;4099;52.684;9.918;2023-12-14T13:10:33;4.60;99.90
8114;DHT22;4099;52.684;9.918;2023-12-14T13:15:37;4.60;99.90
8114;DHT22;4099;52.684;9.918;2023-12-14T13:20:39;4.60;99.90
8114;DHT22;4099;52.684;9.918;2023-12-14T13:25:41;4.50;99.90
8114;DHT22;4099;52.684;9.918;2023-12-14T13:30:46;4.60;99.90
8114;DHT22;4099;52.684;9.918;2023-12-14T13:35:48;4.60;99.90
8114;DHT22;4099;52.684;9.918;2023-12-14T13:40:50;4.50;99.90
8114;DHT22;4099;52.684;9.918;2023-12-14T13:45:53;4.50;99.90
8114;DHT22;4099;52.684;9.918;2023-12-14T13:50:58;4.60;99.90
8114;DHT22;4099;52.684;9.918;2023-12-14T13:56:00;4.60;99.90
8114;DHT22;4099;52.684;9.918;2023-12-14T14:01:03;4.70;99.90
8114;DHT22;4099;52.684;9.918;2023-12-14T14:06:08;4.60;99.90
8114;DHT22;4099;52.684;9.918;2023-12-14T14:11:09;4.50;99.90
8114;DHT22;4099;52.684;9.918;2023-12-14T14:16:14;4.60;99.90
8114;DHT22;4099;52.684;9.918;2023-12-14T14:21:16;4.60;99.90
8114;DHT22;4099;52.684;9.918;2023-12-14T14:26:18;4.60;99.90
8114;DHT22;4099;52.684;9.918;2023-12-14T14:31:21;4.60;99.90
8114;DHT22;4099;52.684;9.918;2023-12-14T14:36:23;4.60;99.90
8114;DHT22;4099;52.684;9.918;2023-12-14T14:41:25;4.60;99.90
8114;DHT22;4099;52.684;9.918;2023-12-14T14:46:28;4.50;99.90
8114;DHT22;4099;52.684;9.918;2023-12-14T14:51:30;4.50;99.90
8114;DHT22;4099;52.684;9.918;2023-12-14T14:56:32;4.50;99.90
8114;DHT22;4099;52.684;9.918;2023-12-14T15:01:35;4.50;99.90
8114;DHT22;4099;52.684;9.918;2023-12-14T15:06:36;4.40;99.90
8114;DHT22;4099;52.684;9.918;2023-12-14T15:11:38;4.40;99.90
8114;DHT22;4099;52.684;9.918;2023-12-14T15:16:44;4.40;99.90
8114;DHT22;4099;52.684;9.918;2023-12-14T15:21:47;4.30;99.90
8114;DHT22;4099;52.684;9.918;2023-12-14T15:26:48;4.40;99.90
8114;DHT22;4099;52.684;9.918;2023-12-14T15:31:52;4.40;99.90
8114;DHT22;4099;52.684;9.918;2023-12-14T15:36:54;4.40;99.90
8114;DHT22;4099;52.684;9.918;2023-12-14T15:41:55;4.40;99.90
8114;DHT22;4099;52.684;9.918;2023-12-14T15:46:58;4.30;99.90
8114;DHT22;4099;52.684;9.918;2023-12-14T15:52:00;4.20;99.90
8114;DHT22;4099;52.684;9.918;2023-12-14T15:57:03;4.10;99.90
8114;DHT22;4099;52.684;9.918;2023-12-14T16:02:06;4.00;99.90
8114;DHT22;4099;52.684;9.918;2023-12-14T16:07:08;3.80;99.90
8114;DHT22;4099;52.684;9.918;2023-12-14T16:12:10;3.90;99.90
8114;DHT22;4099;52.684;9.918;2023-12-14T16:17:13;3.70;99.90
8114;DHT22;4099;52.684;9.918;2023-12-14T16:22:15;3.40;99.90
8114;DHT22;4099;52.684;9.918;2023-12-14T16:27:17;3.40;99.90
8114;DHT22;4099;52.684;9.918;2023-12-14T16:32:20;3.20;99.90
8114;DHT22;4099;52.684;9.918;2023-12-14T16:37:22;2.70;99.90
8114;DHT22;4099;52.684;9.918;2023-12-14T16:42:27;2.20;99.90
8114;DHT22;4099;52.684;9.918;2023-12-14T16:47:30;2.00;99.90
8114;DHT22;4099;52.684;9.918;2023-12-14T16:52:32;2.30;99.90
8114;DHT22;4099;52.684;9.918;2023-12-14T16:57:34;2.50;99.90
8114;DHT22;4099;52.684;9.918;2023-12-14T17:02:39;2.40;99.90
8114;DHT22;4099;52.684;9.918;2023-12-14T17:07:40;2.30;99.90
8114;DHT22;4099;52.684;9.918;2023-12-14T17:12:42;2.10;99.90
8114;DHT22;4099;52.684;9.918;2023-12-14T17:17:45;2.20;99.90
8114;DHT22;4099;52.684;9.918;2023-12-14T17:22:47;2.40;99.90
8114;DHT22;4099;52.684;9.918;2023-12-14T17:27:49;2.60;99.90
8114;DHT22;4099;52.684;9.918;2023-12-14T17:32:52;2.60;99.90
8114;DHT22;4099;52.684;9.918;2023-12-14T17:37:53;2.80;99.90
8114;DHT22;4099;52.684;9.918;2023-12-14T17:42:55;2.90;99.90
8114;DHT22;4099;52.684;9.918;2023-12-14T17:47:58;2.80;99.90
8114;DHT22;4099;52.684;9.918;2023-12-14T17:53:00;2.90;99.90
8114;DHT22;4099;52.684;9.918;2023-12-14T17:58:02;3.10;99.90
8114;DHT22;4099;52.684;9.918;2023-12-14T18:03:05;3.10;99.90
8114;DHT22;4099;52.684;9.918;2023-12-14T18:08:07;3.00;99.90
8114;DHT22;4099;52.684;9.918;2023-12-14T18:13:09;2.70;99.90
8114;DHT22;4099;52.684;9.918;2023-12-14T18:18:12;2.40;99.90
8114;DHT22;4099;52.684;9.918;2023-12-14T18:23:13;2.40;99.90
8114;DHT22;4099;52.684;9.918;2023-12-14T18:28:16;2.40;99.90
8114;DHT22;4099;52.684;9.918;2023-12-14T18:33:19;2.50;99.90
8114;DHT22;4099;52.684;9.918;2023-12-14T18:38:21;2.50;99.90
8114;DHT22;4099;52.684;9.918;2023-12-14T18:43:23;2.30;99.90
8114;DHT22;4099;52.684;9.918;2023-12-14T18:48:26;2.40;99.90
8114;DHT22;4099;52.684;9.918;2023-12-14T18:53:27;2.10;99.90
8114;DHT22;4099;52.684;9.918;2023-12-14T18:58:29;1.90;99.90
8114;DHT22;4099;52.684;9.918;2023-12-14T19:03:32;1.80;99.90
8114;DHT22;4099;52.684;9.918;2023-12-14T19:08:35;2.20;99.90
8114;DHT22;4099;52.684;9.918;2023-12-14T19:13:37;2.20;99.90
8114;DHT22;4099;52.684;9.918;2023-12-14T19:18:40;2.10;99.90
8114;DHT22;4099;52.684;9.918;2023-12-14T19:23:42;2.20;99.90
8114;DHT22;4099;52.684;9.918;2023-12-14T19:28:44;2.10;99.90
8114;DHT22;4099;52.684;9.918;2023-12-14T19:33:47;2.00;99.90
8114;DHT22;4099;52.684;9.918;2023-12-14T19:38:48;1.90;99.90
8114;DHT22;4099;52.684;9.918;2023-12-14T19:43:52;1.80;99.90
8114;DHT22;4099;52.684;9.918;2023-12-14T19:48:55;2.10;99.90
8114;DHT22;4099;52.684;9.918;2023-12-14T19:53:57;2.10;99.90
8114;DHT22;4099;52.684;9.918;2023-12-14T19:58:59;2.00;99.90
8114;DHT22;4099;52.684;9.918;2023-12-14T20:04:02;2.00;99.90
8114;DHT22;4099;52.684;9.918;2023-12-14T20:09:04;2.30;99.90
8114;DHT22;4099;52.684;9.918;2023-12-14T20:14:06;2.20;99.90
8114;DHT22;4099;52.684;9.918;2023-12-14T20:19:09;2.20;99.90
8114;DHT22;4099;52.684;9.918;2023-12-14T20:24:12;2.20;99.90
8114;DHT22;4099;52.684;9.918;2023-12-14T20:29:14;2.10;99.90
8114;DHT22;4099;52.684;9.918;2023-12-14T20:34:17;1.90;99.90
8114;DHT22;4099;52.684;9.918;2023-12-14T20:39:19;1.90;99.90
8114;DHT22;4099;52.684;9.918;2023-12-14T20:44:22;2.10;99.90
8114;DHT22;4099;52.684;9.918;2023-12-14T20:49:25;2.20;99.90
8114;DHT22;4099;52.684;9.918;2023-12-14T20:54:27;2.10;99.90
8114;DHT22;4099;52.684;9.918;2023-12-14T20:59:29;1.70;99.90
8114;DHT22;4099;52.684;9.918;2023-12-14T21:04:32;1.30;99.90
8114;DHT22;4099;52.684;9.918;2023-12-14T21:09:34;1.30;99.90
8114;DHT22;4099;52.684;9.918;2023-12-14T21:14:36;1.20;99.90
8114;DHT22;4099;52.684;9.918;2023-12-14T21:19:46;0.90;99.90
8114;DHT22;4099;52.684;9.918;2023-12-14T21:24:48;0.60;99.90
8114;DHT22;4099;52.684;9.918;2023-12-14T21:29:51;0.30;99.90
8114;DHT22;4099;52.684;9.918;2023-12-14T21:34:54;0.30;99.90
8114;DHT22;4099;52.684;9.918;2023-12-14T21:39:55;0.50;99.90
8114;DHT22;4099;52.684;9.918;2023-12-14T21:44:57;0.60;99.90
8114;DHT22;4099;52.684;9.918;2023-12-14T21:50:00;0.60;99.90
8114;DHT22;4099;52.684;9.918;2023-12-14T21:55:03;0.30;99.90
8114;DHT22;4099;52.684;9.918;2023-12-14T22:00:06;0.40;99.90
8114;DHT22;4099;52.684;9.918;2023-12-14T22:05:10;0.20;99.90
8114;DHT22;4099;52.684;9.918;2023-12-14T22:10:11;0.50;99.90
8114;DHT22;4099;52.684;9.918;2023-12-14T22:15:16;0.80;99.90
8114;DHT22;4099;52.684;9.918;2023-12-14T22:20:19;0.80;99.90
8114;DHT22;4099;52.684;9.918;2023-12-14T22:25:21;0.90;99.90
8114;DHT22;4099;52.684;9.918;2023-12-14T22:30:23;1.00;99.90
8114;DHT22;4099;52.684;9.918;2023-12-14T22:35:26;1.20;99.90
8114;DHT22;4099;52.684;9.918;2023-12-14T22:40:28;1.10;99.90
8114;DHT22;4099;52.684;9.918;2023-12-14T22:45:30;0.90;99.90
8114;DHT22;4099;52.684;9.918;2023-12-14T22:50:34;1.00;99.90
8114;DHT22;4099;52.684;9.918;2023-12-14T22:55:36;1.00;99.90
8114;DHT22;4099;52.684;9.918;2023-12-14T23:00:37;0.90;99.90
8114;DHT22;4099;52.684;9.918;2023-12-14T23:05:41;0.90;99.90
8114;DHT22;4099;52.684;9.918;2023-12-14T23:10:42;0.80;99.90
8114;DHT22;4099;52.684;9.918;2023-12-14T23:15:44;0.90;99.90
8114;DHT22;4099;52.684;9.918;2023-12-14T23:20:47;1.00;99.90
8114;DHT22;4099;52.684;9.918;2023-12-14T23:25:49;1.10;99.90
8114;DHT22;4099;52.684;9.918;2023-12-14T23:30:51;1.30;99.90
8114;DHT22;4099;52.684;9.918;2023-12-14T23:35:54;1.50;99.90
8114;DHT22;4099;52.684;9.918;2023-12-14T23:40:56;1.70;99.90
8114;DHT22;4099;52.684;9.918;2023-12-14T23:45:58;1.70;99.90
8114;DHT22;4099;52.684;9.918;2023-12-14T23:51:01;1.70;99.90
8114;DHT22;4099;52.684;9.918;2023-12-14T23:56:03;1.80;99.90
